sensor_id;sensor_type;location;lat;lon;timestamp;P1;durP1;ratioP1;P2;durP2;ratioP2
51566;SDS011;37657;53.182;5.638;2023-06-19T00:01:42;13.80;;;10.20;;
51566;SDS011;37657;53.182;5.638;2023-06-19T00:04:08;12.10;;;9.65;;
51566;SDS011;37657;53.182;5.638;2023-06-19T00:06:34;11.10;;;9.10;;
51566;SDS011;37657;53.182;5.638;2023-06-19T00:09:00;10.43;;;8.68;;
51566;SDS011;37657;53.182;5.638;2023-06-19T00:11:26;12.63;;;10.63;;
51566;SDS011;37657;53.182;5.638;2023-06-19T00:13:51;8.82;;;7.53;;
51566;SDS011;37657;53.182;5.638;2023-06-19T00:16:17;11.77;;;9.43;;
51566;SDS011;37657;53.182;5.638;2023-06-19T00:18:44;11.30;;;8.90;;
51566;SDS011;37657;53.182;5.638;2023-06-19T00:21:10;11.35;;;9.68;;
51566;SDS011;37657;53.182;5.638;2023-06-19T00:23:36;11.70;;;10.57;;
51566;SDS011;37657;53.182;5.638;2023-06-19T00:26:01;10.82;;;9.50;;
51566;SDS011;37657;53.182;5.638;2023-06-19T00:28:28;11.60;;;9.07;;
51566;SDS011;37657;53.182;5.638;2023-06-19T00:30:54;10.43;;;9.32;;
51566;SDS011;37657;53.182;5.638;2023-06-19T00:33:19;11.73;;;10.27;;
51566;SDS011;37657;53.182;5.638;2023-06-19T00:35:46;9.63;;;8.65;;
51566;SDS011;37657;53.182;5.638;2023-06-19T00:38:13;16.35;;;9.07;;
51566;SDS011;37657;53.182;5.638;2023-06-19T00:40:39;10.68;;;9.57;;
51566;SDS011;37657;53.182;5.638;2023-06-19T00:43:05;10.20;;;8.40;;
51566;SDS011;37657;53.182;5.638;2023-06-19T00:45:31;9.63;;;8.43;;
51566;SDS011;37657;53.182;5.638;2023-06-19T00:47:57;10.43;;;9.32;;
51566;SDS011;37657;53.182;5.638;2023-06-19T00:50:24;11.20;;;8.70;;
51566;SDS011;37657;53.182;5.638;2023-06-19T00:52:52;13.00;;;10.05;;
51566;SDS011;37657;53.182;5.638;2023-06-19T00:55:19;11.95;;;10.15;;
51566;SDS011;37657;53.182;5.638;2023-06-19T00:57:45;10.35;;;9.10;;
51566;SDS011;37657;53.182;5.638;2023-06-19T01:00:11;14.05;;;10.15;;
51566;SDS011;37657;53.182;5.638;2023-06-19T01:02:38;10.98;;;8.85;;
51566;SDS011;37657;53.182;5.638;2023-06-19T01:05:04;19.45;;;10.07;;
51566;SDS011;37657;53.182;5.638;2023-06-19T01:10:23;12.35;;;10.25;;
51566;SDS011;37657;53.182;5.638;2023-06-19T01:13:10;10.55;;;8.40;;
51566;SDS011;37657;53.182;5.638;2023-06-19T01:15:44;11.65;;;9.80;;
51566;SDS011;37657;53.182;5.638;2023-06-19T01:18:12;9.95;;;8.20;;
51566;SDS011;37657;53.182;5.638;2023-06-19T01:20:39;10.43;;;9.40;;
51566;SDS011;37657;53.182;5.638;2023-06-19T01:23:08;8.98;;;7.65;;
51566;SDS011;37657;53.182;5.638;2023-06-19T01:25:35;11.85;;;9.45;;
51566;SDS011;37657;53.182;5.638;2023-06-19T01:28:05;11.45;;;8.70;;
51566;SDS011;37657;53.182;5.638;2023-06-19T01:30:34;13.13;;;9.00;;
51566;SDS011;37657;53.182;5.638;2023-06-19T01:35:45;10.65;;;9.32;;
51566;SDS011;37657;53.182;5.638;2023-06-19T01:38:12;11.07;;;10.00;;
51566;SDS011;37657;53.182;5.638;2023-06-19T01:40:39;13.25;;;9.88;;
51566;SDS011;37657;53.182;5.638;2023-06-19T01:43:07;18.25;;;9.07;;
51566;SDS011;37657;53.182;5.638;2023-06-19T01:45:33;11.63;;;9.98;;
51566;SDS011;37657;53.182;5.638;2023-06-19T01:47:59;12.55;;;9.30;;
51566;SDS011;37657;53.182;5.638;2023-06-19T01:50:25;12.27;;;9.15;;
51566;SDS011;37657;53.182;5.638;2023-06-19T01:52:51;9.85;;;8.30;;
51566;SDS011;37657;53.182;5.638;2023-06-19T01:55:17;11.30;;;10.13;;
51566;SDS011;37657;53.182;5.638;2023-06-19T01:57:43;12.15;;;8.93;;
51566;SDS011;37657;53.182;5.638;2023-06-19T02:00:11;12.20;;;10.00;;
51566;SDS011;37657;53.182;5.638;2023-06-19T02:02:37;12.57;;;10.15;;
51566;SDS011;37657;53.182;5.638;2023-06-19T02:05:02;9.98;;;8.48;;
51566;SDS011;37657;53.182;5.638;2023-06-19T02:07:28;10.98;;;8.88;;
51566;SDS011;37657;53.182;5.638;2023-06-19T02:09:54;13.57;;;10.55;;
51566;SDS011;37657;53.182;5.638;2023-06-19T02:12:19;12.27;;;11.02;;
51566;SDS011;37657;53.182;5.638;2023-06-19T02:14:45;12.88;;;9.63;;
51566;SDS011;37657;53.182;5.638;2023-06-19T02:17:11;9.05;;;8.15;;
51566;SDS011;37657;53.182;5.638;2023-06-19T02:19:36;10.20;;;8.73;;
51566;SDS011;37657;53.182;5.638;2023-06-19T02:22:02;10.77;;;9.32;;
51566;SDS011;37657;53.182;5.638;2023-06-19T02:24:28;10.50;;;8.98;;
51566;SDS011;37657;53.182;5.638;2023-06-19T02:26:54;10.80;;;9.10;;
51566;SDS011;37657;53.182;5.638;2023-06-19T02:29:19;10.98;;;9.80;;
51566;SDS011;37657;53.182;5.638;2023-06-19T02:31:45;12.90;;;11.13;;
51566;SDS011;37657;53.182;5.638;2023-06-19T02:34:11;10.27;;;8.68;;
51566;SDS011;37657;53.182;5.638;2023-06-19T02:36:36;10.50;;;9.27;;
51566;SDS011;37657;53.182;5.638;2023-06-19T02:39:04;12.95;;;10.65;;
51566;SDS011;37657;53.182;5.638;2023-06-19T02:41:31;11.60;;;9.60;;
51566;SDS011;37657;53.182;5.638;2023-06-19T02:43:57;10.38;;;9.38;;
51566;SDS011;37657;53.182;5.638;2023-06-19T02:46:22;12.02;;;8.57;;
51566;SDS011;37657;53.182;5.638;2023-06-19T02:48:48;14.80;;;10.13;;
51566;SDS011;37657;53.182;5.638;2023-06-19T02:51:14;11.82;;;9.07;;
51566;SDS011;37657;53.182;5.638;2023-06-19T02:53:39;12.40;;;10.85;;
51566;SDS011;37657;53.182;5.638;2023-06-19T02:56:06;16.17;;;9.55;;
51566;SDS011;37657;53.182;5.638;2023-06-19T02:58:32;13.70;;;10.35;;
51566;SDS011;37657;53.182;5.638;2023-06-19T03:00:59;14.65;;;11.73;;
51566;SDS011;37657;53.182;5.638;2023-06-19T03:03:25;13.38;;;10.73;;
51566;SDS011;37657;53.182;5.638;2023-06-19T03:05:51;24.60;;;10.57;;
51566;SDS011;37657;53.182;5.638;2023-06-19T03:08:16;24.27;;;10.88;;
51566;SDS011;37657;53.182;5.638;2023-06-19T03:10:42;16.73;;;10.80;;
51566;SDS011;37657;53.182;5.638;2023-06-19T03:13:08;11.05;;;9.52;;
51566;SDS011;37657;53.182;5.638;2023-06-19T03:15:33;9.32;;;8.35;;
51566;SDS011;37657;53.182;5.638;2023-06-19T03:17:59;10.85;;;8.85;;
51566;SDS011;37657;53.182;5.638;2023-06-19T03:20:28;12.77;;;8.80;;
51566;SDS011;37657;53.182;5.638;2023-06-19T03:22:54;10.23;;;7.88;;
51566;SDS011;37657;53.182;5.638;2023-06-19T03:25:19;9.77;;;6.50;;
51566;SDS011;37657;53.182;5.638;2023-06-19T03:27:45;9.52;;;6.97;;
51566;SDS011;37657;53.182;5.638;2023-06-19T03:30:11;8.57;;;5.72;;
51566;SDS011;37657;53.182;5.638;2023-06-19T03:32:38;6.30;;;5.57;;
51566;SDS011;37657;53.182;5.638;2023-06-19T03:35:03;10.40;;;6.35;;
51566;SDS011;37657;53.182;5.638;2023-06-19T03:37:30;8.95;;;5.80;;
51566;SDS011;37657;53.182;5.638;2023-06-19T03:39:57;7.00;;;5.78;;
51566;SDS011;37657;53.182;5.638;2023-06-19T03:42:23;8.52;;;5.47;;
51566;SDS011;37657;53.182;5.638;2023-06-19T03:44:49;7.10;;;4.43;;
51566;SDS011;37657;53.182;5.638;2023-06-19T03:47:14;5.97;;;4.72;;
51566;SDS011;37657;53.182;5.638;2023-06-19T03:49:41;11.63;;;4.55;;
51566;SDS011;37657;53.182;5.638;2023-06-19T03:52:07;7.68;;;4.18;;
51566;SDS011;37657;53.182;5.638;2023-06-19T03:54:33;6.40;;;3.60;;
51566;SDS011;37657;53.182;5.638;2023-06-19T03:56:58;6.68;;;4.18;;
51566;SDS011;37657;53.182;5.638;2023-06-19T03:59:24;11.50;;;4.75;;
51566;SDS011;37657;53.182;5.638;2023-06-19T04:01:50;6.57;;;3.85;;
51566;SDS011;37657;53.182;5.638;2023-06-19T04:04:16;5.60;;;3.97;;
51566;SDS011;37657;53.182;5.638;2023-06-19T04:06:41;6.55;;;4.32;;
51566;SDS011;37657;53.182;5.638;2023-06-19T04:09:07;6.85;;;3.97;;
51566;SDS011;37657;53.182;5.638;2023-06-19T04:11:33;5.25;;;4.55;;
51566;SDS011;37657;53.182;5.638;2023-06-19T04:13:58;8.52;;;4.95;;
51566;SDS011;37657;53.182;5.638;2023-06-19T04:16:24;9.18;;;6.75;;
51566;SDS011;37657;53.182;5.638;2023-06-19T04:18:49;12.02;;;6.22;;
51566;SDS011;37657;53.182;5.638;2023-06-19T04:21:15;12.07;;;7.45;;
51566;SDS011;37657;53.182;5.638;2023-06-19T04:23:41;12.80;;;8.40;;
51566;SDS011;37657;53.182;5.638;2023-06-19T04:26:06;9.68;;;7.78;;
51566;SDS011;37657;53.182;5.638;2023-06-19T04:28:32;10.38;;;6.80;;
51566;SDS011;37657;53.182;5.638;2023-06-19T04:30:58;11.68;;;7.60;;
51566;SDS011;37657;53.182;5.638;2023-06-19T04:33:27;10.10;;;6.03;;
51566;SDS011;37657;53.182;5.638;2023-06-19T04:35:53;7.80;;;5.47;;
51566;SDS011;37657;53.182;5.638;2023-06-19T04:38:19;10.18;;;6.20;;
51566;SDS011;37657;53.182;5.638;2023-06-19T04:40:49;7.80;;;5.68;;
51566;SDS011;37657;53.182;5.638;2023-06-19T04:43:16;9.23;;;8.25;;
51566;SDS011;37657;53.182;5.638;2023-06-19T04:45:42;9.43;;;8.00;;
51566;SDS011;37657;53.182;5.638;2023-06-19T04:48:07;11.48;;;8.48;;
51566;SDS011;37657;53.182;5.638;2023-06-19T04:50:33;9.80;;;8.27;;
51566;SDS011;37657;53.182;5.638;2023-06-19T04:52:59;12.02;;;9.85;;
51566;SDS011;37657;53.182;5.638;2023-06-19T04:55:25;11.10;;;8.50;;
51566;SDS011;37657;53.182;5.638;2023-06-19T04:57:50;15.80;;;8.57;;
51566;SDS011;37657;53.182;5.638;2023-06-19T05:00:16;9.75;;;8.32;;
51566;SDS011;37657;53.182;5.638;2023-06-19T05:02:44;12.18;;;9.82;;
51566;SDS011;37657;53.182;5.638;2023-06-19T05:05:12;12.02;;;10.82;;
51566;SDS011;37657;53.182;5.638;2023-06-19T05:07:39;19.58;;;14.40;;
51566;SDS011;37657;53.182;5.638;2023-06-19T05:10:05;14.00;;;12.60;;
51566;SDS011;37657;53.182;5.638;2023-06-19T05:12:31;28.27;;;19.55;;
51566;SDS011;37657;53.182;5.638;2023-06-19T05:14:57;19.50;;;17.48;;
51566;SDS011;37657;53.182;5.638;2023-06-19T05:17:22;28.25;;;20.52;;
51566;SDS011;37657;53.182;5.638;2023-06-19T05:19:48;23.95;;;18.33;;
51566;SDS011;37657;53.182;5.638;2023-06-19T05:22:14;32.80;;;23.65;;
51566;SDS011;37657;53.182;5.638;2023-06-19T05:24:40;27.80;;;19.95;;
51566;SDS011;37657;53.182;5.638;2023-06-19T05:27:06;26.98;;;20.40;;
51566;SDS011;37657;53.182;5.638;2023-06-19T05:29:32;35.60;;;21.75;;
51566;SDS011;37657;53.182;5.638;2023-06-19T05:31:57;27.88;;;24.98;;
51566;SDS011;37657;53.182;5.638;2023-06-19T05:34:23;29.55;;;26.35;;
51566;SDS011;37657;53.182;5.638;2023-06-19T05:36:49;30.23;;;25.92;;
51566;SDS011;37657;53.182;5.638;2023-06-19T05:39:14;31.02;;;26.75;;
51566;SDS011;37657;53.182;5.638;2023-06-19T05:41:40;30.15;;;26.27;;
51566;SDS011;37657;53.182;5.638;2023-06-19T05:44:06;28.17;;;25.15;;
51566;SDS011;37657;53.182;5.638;2023-06-19T05:46:32;30.77;;;27.48;;
51566;SDS011;37657;53.182;5.638;2023-06-19T05:48:57;30.85;;;26.85;;
51566;SDS011;37657;53.182;5.638;2023-06-19T05:51:23;32.72;;;28.08;;
51566;SDS011;37657;53.182;5.638;2023-06-19T05:53:49;36.75;;;28.38;;
51566;SDS011;37657;53.182;5.638;2023-06-19T05:56:15;30.77;;;26.38;;
51566;SDS011;37657;53.182;5.638;2023-06-19T05:58:41;30.17;;;26.45;;
51566;SDS011;37657;53.182;5.638;2023-06-19T06:01:06;31.63;;;27.05;;
51566;SDS011;37657;53.182;5.638;2023-06-19T06:03:32;34.03;;;27.00;;
51566;SDS011;37657;53.182;5.638;2023-06-19T06:05:58;32.40;;;26.65;;
51566;SDS011;37657;53.182;5.638;2023-06-19T06:08:28;30.13;;;26.80;;
51566;SDS011;37657;53.182;5.638;2023-06-19T06:10:54;31.85;;;28.02;;
51566;SDS011;37657;53.182;5.638;2023-06-19T06:13:20;29.98;;;26.92;;
51566;SDS011;37657;53.182;5.638;2023-06-19T06:15:46;32.28;;;28.15;;
51566;SDS011;37657;53.182;5.638;2023-06-19T06:18:12;33.53;;;29.95;;
51566;SDS011;37657;53.182;5.638;2023-06-19T06:20:37;29.17;;;25.30;;
51566;SDS011;37657;53.182;5.638;2023-06-19T06:23:03;32.88;;;28.45;;
51566;SDS011;37657;53.182;5.638;2023-06-19T06:25:29;35.47;;;29.50;;
51566;SDS011;37657;53.182;5.638;2023-06-19T06:27:54;36.13;;;31.17;;
51566;SDS011;37657;53.182;5.638;2023-06-19T06:30:20;40.42;;;30.77;;
51566;SDS011;37657;53.182;5.638;2023-06-19T06:32:47;36.83;;;31.15;;
51566;SDS011;37657;53.182;5.638;2023-06-19T06:35:13;42.30;;;32.42;;
51566;SDS011;37657;53.182;5.638;2023-06-19T06:37:39;37.88;;;31.10;;
51566;SDS011;37657;53.182;5.638;2023-06-19T06:40:06;35.58;;;29.75;;
51566;SDS011;37657;53.182;5.638;2023-06-19T06:42:34;33.45;;;29.58;;
51566;SDS011;37657;53.182;5.638;2023-06-19T06:45:00;33.17;;;28.65;;
51566;SDS011;37657;53.182;5.638;2023-06-19T06:47:26;43.72;;;33.72;;
51566;SDS011;37657;53.182;5.638;2023-06-19T06:49:51;44.85;;;34.28;;
51566;SDS011;37657;53.182;5.638;2023-06-19T06:52:17;30.58;;;27.30;;
51566;SDS011;37657;53.182;5.638;2023-06-19T06:54:43;34.47;;;28.38;;
51566;SDS011;37657;53.182;5.638;2023-06-19T06:57:09;42.10;;;27.48;;
51566;SDS011;37657;53.182;5.638;2023-06-19T06:59:34;53.17;;;33.42;;
51566;SDS011;37657;53.182;5.638;2023-06-19T07:02:00;38.75;;;30.42;;
51566;SDS011;37657;53.182;5.638;2023-06-19T07:04:26;38.40;;;28.80;;
51566;SDS011;37657;53.182;5.638;2023-06-19T07:06:51;33.85;;;30.15;;
51566;SDS011;37657;53.182;5.638;2023-06-19T07:09:17;43.35;;;32.63;;
51566;SDS011;37657;53.182;5.638;2023-06-19T07:11:43;41.72;;;29.95;;
51566;SDS011;37657;53.182;5.638;2023-06-19T07:14:09;38.88;;;29.40;;
51566;SDS011;37657;53.182;5.638;2023-06-19T07:16:34;34.45;;;30.38;;
51566;SDS011;37657;53.182;5.638;2023-06-19T07:19:00;36.85;;;30.05;;
51566;SDS011;37657;53.182;5.638;2023-06-19T07:21:25;44.80;;;30.98;;
51566;SDS011;37657;53.182;5.638;2023-06-19T07:23:53;41.03;;;30.00;;
51566;SDS011;37657;53.182;5.638;2023-06-19T07:26:19;33.25;;;27.85;;
51566;SDS011;37657;53.182;5.638;2023-06-19T07:28:45;37.47;;;24.63;;
51566;SDS011;37657;53.182;5.638;2023-06-19T07:31:11;32.58;;;26.65;;
51566;SDS011;37657;53.182;5.638;2023-06-19T07:33:36;40.42;;;27.02;;
51566;SDS011;37657;53.182;5.638;2023-06-19T07:36:02;32.45;;;25.08;;
51566;SDS011;37657;53.182;5.638;2023-06-19T07:38:28;32.75;;;22.85;;
51566;SDS011;37657;53.182;5.638;2023-06-19T07:40:54;29.38;;;22.08;;
51566;SDS011;37657;53.182;5.638;2023-06-19T07:43:19;26.83;;;20.10;;
51566;SDS011;37657;53.182;5.638;2023-06-19T07:45:47;33.30;;;23.48;;
51566;SDS011;37657;53.182;5.638;2023-06-19T07:48:13;27.02;;;21.77;;
51566;SDS011;37657;53.182;5.638;2023-06-19T07:50:39;17.48;;;15.88;;
51566;SDS011;37657;53.182;5.638;2023-06-19T07:53:05;21.17;;;16.42;;
51566;SDS011;37657;53.182;5.638;2023-06-19T07:55:31;25.08;;;18.30;;
51566;SDS011;37657;53.182;5.638;2023-06-19T07:57:57;21.92;;;16.17;;
51566;SDS011;37657;53.182;5.638;2023-06-19T08:00:23;22.45;;;18.67;;
51566;SDS011;37657;53.182;5.638;2023-06-19T08:02:49;24.63;;;17.20;;
51566;SDS011;37657;53.182;5.638;2023-06-19T08:05:15;22.08;;;15.95;;
51566;SDS011;37657;53.182;5.638;2023-06-19T08:07:41;22.08;;;17.35;;
51566;SDS011;37657;53.182;5.638;2023-06-19T08:10:07;24.85;;;18.45;;
51566;SDS011;37657;53.182;5.638;2023-06-19T08:12:33;24.25;;;19.05;;
51566;SDS011;37657;53.182;5.638;2023-06-19T08:14:59;35.78;;;20.63;;
51566;SDS011;37657;53.182;5.638;2023-06-19T08:17:24;26.88;;;20.33;;
51566;SDS011;37657;53.182;5.638;2023-06-19T08:19:50;25.00;;;19.23;;
51566;SDS011;37657;53.182;5.638;2023-06-19T08:22:15;30.65;;;20.40;;
51566;SDS011;37657;53.182;5.638;2023-06-19T08:24:41;20.95;;;17.02;;
51566;SDS011;37657;53.182;5.638;2023-06-19T08:27:07;21.67;;;17.73;;
51566;SDS011;37657;53.182;5.638;2023-06-19T08:29:33;22.90;;;14.70;;
51566;SDS011;37657;53.182;5.638;2023-06-19T08:31:59;25.40;;;17.83;;
51566;SDS011;37657;53.182;5.638;2023-06-19T08:34:25;17.83;;;15.93;;
51566;SDS011;37657;53.182;5.638;2023-06-19T08:36:51;21.23;;;16.73;;
51566;SDS011;37657;53.182;5.638;2023-06-19T08:39:16;21.45;;;18.40;;
51566;SDS011;37657;53.182;5.638;2023-06-19T08:41:42;22.08;;;15.68;;
51566;SDS011;37657;53.182;5.638;2023-06-19T08:44:08;22.27;;;17.63;;
51566;SDS011;37657;53.182;5.638;2023-06-19T08:46:34;26.98;;;18.85;;
51566;SDS011;37657;53.182;5.638;2023-06-19T08:49:03;22.63;;;16.85;;
51566;SDS011;37657;53.182;5.638;2023-06-19T08:51:31;22.50;;;16.25;;
51566;SDS011;37657;53.182;5.638;2023-06-19T08:54:01;22.20;;;14.68;;
51566;SDS011;37657;53.182;5.638;2023-06-19T08:56:29;19.88;;;17.60;;
51566;SDS011;37657;53.182;5.638;2023-06-19T08:59:15;32.22;;;16.58;;
51566;SDS011;37657;53.182;5.638;2023-06-19T09:06:53;22.15;;;16.80;;
51566;SDS011;37657;53.182;5.638;2023-06-19T09:09:21;21.27;;;15.90;;
51566;SDS011;37657;53.182;5.638;2023-06-19T09:14:36;23.25;;;16.17;;
51566;SDS011;37657;53.182;5.638;2023-06-19T09:17:04;24.67;;;20.25;;
51566;SDS011;37657;53.182;5.638;2023-06-19T09:19:35;21.80;;;19.40;;
51566;SDS011;37657;53.182;5.638;2023-06-19T09:22:02;18.60;;;16.63;;
51566;SDS011;37657;53.182;5.638;2023-06-19T09:24:35;25.15;;;19.63;;
51566;SDS011;37657;53.182;5.638;2023-06-19T09:27:09;19.77;;;17.05;;
51566;SDS011;37657;53.182;5.638;2023-06-19T09:29:41;19.75;;;17.23;;
51566;SDS011;37657;53.182;5.638;2023-06-19T09:34:43;33.72;;;20.02;;
51566;SDS011;37657;53.182;5.638;2023-06-19T09:37:09;24.05;;;19.77;;
51566;SDS011;37657;53.182;5.638;2023-06-19T09:39:37;21.52;;;19.25;;
51566;SDS011;37657;53.182;5.638;2023-06-19T09:42:03;24.05;;;20.27;;
51566;SDS011;37657;53.182;5.638;2023-06-19T09:44:35;22.88;;;19.02;;
51566;SDS011;37657;53.182;5.638;2023-06-19T09:47:13;25.35;;;19.45;;
51566;SDS011;37657;53.182;5.638;2023-06-19T09:49:54;24.65;;;19.33;;
51566;SDS011;37657;53.182;5.638;2023-06-19T09:52:21;27.38;;;20.85;;
51566;SDS011;37657;53.182;5.638;2023-06-19T09:54:52;19.55;;;17.40;;
51566;SDS011;37657;53.182;5.638;2023-06-19T09:57:19;20.33;;;17.55;;
51566;SDS011;37657;53.182;5.638;2023-06-19T09:59:46;21.95;;;17.48;;
51566;SDS011;37657;53.182;5.638;2023-06-19T10:02:14;21.92;;;17.65;;
51566;SDS011;37657;53.182;5.638;2023-06-19T10:04:46;22.13;;;19.73;;
51566;SDS011;37657;53.182;5.638;2023-06-19T10:07:16;21.92;;;18.00;;
51566;SDS011;37657;53.182;5.638;2023-06-19T10:12:42;24.52;;;21.13;;
51566;SDS011;37657;53.182;5.638;2023-06-19T10:15:11;23.50;;;17.48;;
51566;SDS011;37657;53.182;5.638;2023-06-19T10:17:43;36.75;;;24.02;;
51566;SDS011;37657;53.182;5.638;2023-06-19T10:20:32;26.17;;;18.40;;
51566;SDS011;37657;53.182;5.638;2023-06-19T10:25:47;30.10;;;21.23;;
51566;SDS011;37657;53.182;5.638;2023-06-19T10:35:54;32.63;;;25.30;;
51566;SDS011;37657;53.182;5.638;2023-06-19T10:38:20;36.67;;;26.00;;
51566;SDS011;37657;53.182;5.638;2023-06-19T10:40:46;44.53;;;28.27;;
51566;SDS011;37657;53.182;5.638;2023-06-19T10:43:12;28.80;;;25.02;;
51566;SDS011;37657;53.182;5.638;2023-06-19T10:45:44;38.10;;;25.75;;
51566;SDS011;37657;53.182;5.638;2023-06-19T10:48:10;30.58;;;24.42;;
51566;SDS011;37657;53.182;5.638;2023-06-19T10:50:41;29.40;;;24.13;;
51566;SDS011;37657;53.182;5.638;2023-06-19T10:53:07;30.67;;;21.17;;
51566;SDS011;37657;53.182;5.638;2023-06-19T10:55:33;29.45;;;21.73;;
51566;SDS011;37657;53.182;5.638;2023-06-19T10:57:59;22.05;;;18.42;;
51566;SDS011;37657;53.182;5.638;2023-06-19T11:00:25;20.85;;;17.52;;
51566;SDS011;37657;53.182;5.638;2023-06-19T11:02:52;19.65;;;16.38;;
51566;SDS011;37657;53.182;5.638;2023-06-19T11:05:22;24.25;;;18.45;;
51566;SDS011;37657;53.182;5.638;2023-06-19T11:10:21;17.40;;;15.60;;
51566;SDS011;37657;53.182;5.638;2023-06-19T11:12:49;23.30;;;17.80;;
51566;SDS011;37657;53.182;5.638;2023-06-19T11:15:17;25.92;;;18.58;;
51566;SDS011;37657;53.182;5.638;2023-06-19T11:17:43;21.23;;;16.90;;
51566;SDS011;37657;53.182;5.638;2023-06-19T11:20:10;18.60;;;15.38;;
51566;SDS011;37657;53.182;5.638;2023-06-19T11:22:37;21.13;;;16.15;;
51566;SDS011;37657;53.182;5.638;2023-06-19T11:25:04;20.98;;;16.60;;
51566;SDS011;37657;53.182;5.638;2023-06-19T11:27:31;15.43;;;13.07;;
51566;SDS011;37657;53.182;5.638;2023-06-19T11:29:57;16.80;;;13.98;;
51566;SDS011;37657;53.182;5.638;2023-06-19T11:32:23;14.20;;;12.80;;
51566;SDS011;37657;53.182;5.638;2023-06-19T11:34:56;14.40;;;11.52;;
51566;SDS011;37657;53.182;5.638;2023-06-19T11:37:22;12.95;;;11.60;;
51566;SDS011;37657;53.182;5.638;2023-06-19T11:39:48;13.85;;;12.45;;
51566;SDS011;37657;53.182;5.638;2023-06-19T11:42:16;13.82;;;11.35;;
51566;SDS011;37657;53.182;5.638;2023-06-19T11:44:54;13.07;;;10.95;;
51566;SDS011;37657;53.182;5.638;2023-06-19T11:47:31;14.48;;;11.35;;
51566;SDS011;37657;53.182;5.638;2023-06-19T11:49:57;12.40;;;9.57;;
51566;SDS011;37657;53.182;5.638;2023-06-19T11:52:24;14.45;;;11.00;;
51566;SDS011;37657;53.182;5.638;2023-06-19T11:54:50;13.02;;;11.60;;
51566;SDS011;37657;53.182;5.638;2023-06-19T11:57:15;13.82;;;10.73;;
51566;SDS011;37657;53.182;5.638;2023-06-19T11:59:41;12.68;;;8.98;;
51566;SDS011;37657;53.182;5.638;2023-06-19T12:02:07;10.80;;;8.70;;
51566;SDS011;37657;53.182;5.638;2023-06-19T12:04:33;12.95;;;10.10;;
51566;SDS011;37657;53.182;5.638;2023-06-19T12:06:59;15.60;;;9.13;;
51566;SDS011;37657;53.182;5.638;2023-06-19T12:09:25;15.65;;;10.75;;
51566;SDS011;37657;53.182;5.638;2023-06-19T12:11:51;13.88;;;12.35;;
51566;SDS011;37657;53.182;5.638;2023-06-19T12:14:17;10.73;;;9.52;;
51566;SDS011;37657;53.182;5.638;2023-06-19T12:16:45;11.55;;;10.20;;
51566;SDS011;37657;53.182;5.638;2023-06-19T12:19:11;9.75;;;8.60;;
51566;SDS011;37657;53.182;5.638;2023-06-19T12:21:36;10.05;;;8.15;;
51566;SDS011;37657;53.182;5.638;2023-06-19T12:24:02;14.80;;;9.55;;
51566;SDS011;37657;53.182;5.638;2023-06-19T12:26:28;12.48;;;9.32;;
51566;SDS011;37657;53.182;5.638;2023-06-19T12:28:54;11.77;;;10.30;;
51566;SDS011;37657;53.182;5.638;2023-06-19T12:31:19;14.23;;;10.57;;
51566;SDS011;37657;53.182;5.638;2023-06-19T12:33:46;13.48;;;10.75;;
51566;SDS011;37657;53.182;5.638;2023-06-19T12:36:13;17.27;;;11.13;;
51566;SDS011;37657;53.182;5.638;2023-06-19T12:38:40;12.32;;;9.43;;
51566;SDS011;37657;53.182;5.638;2023-06-19T12:41:06;16.13;;;11.73;;
51566;SDS011;37657;53.182;5.638;2023-06-19T12:43:32;14.35;;;10.57;;
51566;SDS011;37657;53.182;5.638;2023-06-19T12:45:57;15.60;;;11.90;;
51566;SDS011;37657;53.182;5.638;2023-06-19T12:48:27;11.45;;;10.05;;
51566;SDS011;37657;53.182;5.638;2023-06-19T12:50:52;15.73;;;12.70;;
51566;SDS011;37657;53.182;5.638;2023-06-19T12:53:18;13.00;;;11.38;;
51566;SDS011;37657;53.182;5.638;2023-06-19T12:55:44;13.73;;;11.25;;
51566;SDS011;37657;53.182;5.638;2023-06-19T12:58:10;12.70;;;9.50;;
51566;SDS011;37657;53.182;5.638;2023-06-19T13:00:36;15.20;;;11.68;;
51566;SDS011;37657;53.182;5.638;2023-06-19T13:03:02;14.25;;;11.13;;
51566;SDS011;37657;53.182;5.638;2023-06-19T13:05:28;13.45;;;10.80;;
51566;SDS011;37657;53.182;5.638;2023-06-19T13:07:54;12.35;;;9.40;;
51566;SDS011;37657;53.182;5.638;2023-06-19T13:10:19;10.70;;;8.13;;
51566;SDS011;37657;53.182;5.638;2023-06-19T13:12:45;12.70;;;9.35;;
51566;SDS011;37657;53.182;5.638;2023-06-19T13:15:11;11.05;;;8.70;;
51566;SDS011;37657;53.182;5.638;2023-06-19T13:17:36;12.77;;;10.27;;
51566;SDS011;37657;53.182;5.638;2023-06-19T13:20:02;14.43;;;9.88;;
51566;SDS011;37657;53.182;5.638;2023-06-19T13:22:30;14.30;;;9.93;;
51566;SDS011;37657;53.182;5.638;2023-06-19T13:24:56;14.40;;;11.25;;
51566;SDS011;37657;53.182;5.638;2023-06-19T13:27:21;14.40;;;10.93;;
51566;SDS011;37657;53.182;5.638;2023-06-19T13:29:47;17.45;;;11.85;;
51566;SDS011;37657;53.182;5.638;2023-06-19T13:32:13;10.85;;;9.35;;
51566;SDS011;37657;53.182;5.638;2023-06-19T13:34:38;13.63;;;9.93;;
51566;SDS011;37657;53.182;5.638;2023-06-19T13:37:04;13.45;;;9.38;;
51566;SDS011;37657;53.182;5.638;2023-06-19T13:39:30;11.68;;;8.23;;
51566;SDS011;37657;53.182;5.638;2023-06-19T13:41:55;14.27;;;11.00;;
51566;SDS011;37657;53.182;5.638;2023-06-19T13:44:21;11.80;;;8.65;;
51566;SDS011;37657;53.182;5.638;2023-06-19T13:46:47;14.40;;;9.02;;
51566;SDS011;37657;53.182;5.638;2023-06-19T13:49:12;11.40;;;9.63;;
51566;SDS011;37657;53.182;5.638;2023-06-19T13:51:39;10.95;;;9.40;;
51566;SDS011;37657;53.182;5.638;2023-06-19T13:54:04;11.48;;;9.45;;
51566;SDS011;37657;53.182;5.638;2023-06-19T13:56:30;15.55;;;10.88;;
51566;SDS011;37657;53.182;5.638;2023-06-19T13:58:57;10.38;;;8.45;;
51566;SDS011;37657;53.182;5.638;2023-06-19T14:01:23;11.93;;;8.93;;
51566;SDS011;37657;53.182;5.638;2023-06-19T14:03:50;10.70;;;8.07;;
51566;SDS011;37657;53.182;5.638;2023-06-19T14:06:16;11.85;;;8.23;;
51566;SDS011;37657;53.182;5.638;2023-06-19T14:08:42;15.60;;;10.10;;
51566;SDS011;37657;53.182;5.638;2023-06-19T14:11:08;13.00;;;10.02;;
51566;SDS011;37657;53.182;5.638;2023-06-19T14:13:34;14.70;;;8.65;;
51566;SDS011;37657;53.182;5.638;2023-06-19T14:16:00;14.13;;;7.57;;
51566;SDS011;37657;53.182;5.638;2023-06-19T14:18:26;13.18;;;10.18;;
51566;SDS011;37657;53.182;5.638;2023-06-19T14:20:52;15.05;;;11.13;;
51566;SDS011;37657;53.182;5.638;2023-06-19T14:23:17;14.40;;;9.80;;
51566;SDS011;37657;53.182;5.638;2023-06-19T14:25:43;14.68;;;9.57;;
51566;SDS011;37657;53.182;5.638;2023-06-19T14:28:09;8.70;;;7.50;;
51566;SDS011;37657;53.182;5.638;2023-06-19T14:30:34;11.38;;;7.85;;
51566;SDS011;37657;53.182;5.638;2023-06-19T14:33:00;9.93;;;8.00;;
51566;SDS011;37657;53.182;5.638;2023-06-19T14:35:26;11.13;;;8.30;;
51566;SDS011;37657;53.182;5.638;2023-06-19T14:37:52;12.23;;;8.48;;
51566;SDS011;37657;53.182;5.638;2023-06-19T14:40:17;11.27;;;8.85;;
51566;SDS011;37657;53.182;5.638;2023-06-19T14:42:43;13.90;;;10.30;;
51566;SDS011;37657;53.182;5.638;2023-06-19T14:45:09;10.80;;;7.38;;
51566;SDS011;37657;53.182;5.638;2023-06-19T14:47:35;10.15;;;7.78;;
51566;SDS011;37657;53.182;5.638;2023-06-19T14:50:00;12.40;;;7.65;;
51566;SDS011;37657;53.182;5.638;2023-06-19T14:52:26;11.55;;;7.68;;
51566;SDS011;37657;53.182;5.638;2023-06-19T14:54:52;11.32;;;8.13;;
51566;SDS011;37657;53.182;5.638;2023-06-19T14:57:17;11.00;;;7.50;;